Time;durP1;ratioP1;P1;durP2;ratioP2;P2;SDS_P1;SDS_P2;PMS_P1;PMS_P2;Temp;Humidity;BMP_temperature;BMP_pressure;BME280_temperature;BME280_humidity;BME280_pressure;Samples;Min_cycle;Max_cycle;Signal;HPM_P1;HPM_P2
2022/05/27 00:01:28;;;;;;;6.57;2.17;;;;;;;;;;5134725;27;20038;-57
2022/05/27 00:03:55;;;;;;;8.23;2.28;;;;;;;;;;5129367;27;20051;-57
2022/05/27 00:06:21;;;;;;;10.45;1.95;;;;;;;;;;5128798;27;20087;-57
2022/05/27 00:08:47;;;;;;;7.57;1.73;;;;;;;;;;5133982;27;20043;-58
2022/05/27 00:11:14;;;;;;;4.95;1.40;;;;;;;;;;5140312;27;20527;-57
2022/05/27 00:13:40;;;;;;;7.70;1.38;;;;;;;;;;5128974;27;20476;-57
2022/05/27 00:16:06;;;;;;;7.88;2.03;;;;;;;;;;5129149;27;20043;-58
2022/05/27 00:18:33;;;;;;;8.40;1.80;;;;;;;;;;5140785;27;20046;-57
2022/05/27 00:20:59;;;;;;;5.80;1.50;;;;;;;;;;5139933;27;20106;-57
2022/05/27 00:23:26;;;;;;;8.50;1.50;;;;;;;;;;5132678;27;20037;-57
2022/05/27 00:25:52;;;;;;;7.90;1.40;;;;;;;;;;5146768;27;20496;-57
2022/05/27 00:28:18;;;;;;;6.10;1.70;;;;;;;;;;5133980;27;20046;-58
2022/05/27 00:30:44;;;;;;;7.22;1.50;;;;;;;;;;5136106;27;20464;-57
2022/05/27 00:33:11;;;;;;;4.60;1.42;;;;;;;;;;5146715;27;20047;-57
2022/05/27 00:35:37;;;;;;;8.38;1.88;;;;;;;;;;5146625;27;20039;-57
2022/05/27 00:38:03;;;;;;;4.38;1.33;;;;;;;;;;5142450;27;20034;-57
2022/05/27 00:40:36;;;;;;;5.05;1.83;;;;;;;;;;5137045;27;20050;-57
2022/05/27 00:43:02;;;;;;;5.85;1.42;;;;;;;;;;5144628;27;20165;-57
2022/05/27 00:45:29;;;;;;;6.40;1.70;;;;;;;;;;5146253;27;20484;-57
2022/05/27 00:47:57;;;;;;;9.77;2.28;;;;;;;;;;5134034;27;20035;-57
2022/05/27 00:50:25;;;;;;;;;;;;;;;;;;5110302;27;20085;-57
2022/05/27 00:52:52;;;;;;;4.97;1.70;;;;;;;;;;5135500;27;19964;-57
2022/05/27 00:55:20;;;;;;;6.53;2.20;;;;;;;;;;5146392;27;20043;-58
2022/05/27 00:57:51;;;;;;;9.52;2.30;;;;;;;;;;5139258;27;20035;-58
2022/05/27 01:00:19;;;;;;;8.32;1.92;;;;;;;;;;5146279;27;20076;-59
2022/05/27 01:02:46;;;;;;;11.05;2.35;;;;;;;;;;5146595;27;20070;-57
2022/05/27 01:05:14;;;;;;;7.75;2.55;;;;;;;;;;5146940;27;20043;-57
2022/05/27 01:07:40;;;;;;;6.38;2.22;;;;;;;;;;5119442;22;20453;-60
2022/05/27 01:10:08;;;;;;;12.73;2.67;;;;;;;;;;5045394;28;20565;-61
2022/05/27 01:12:44;;;;;;;6.78;2.58;;;;;;;;;;5045941;28;20041;-60
2022/05/27 01:15:11;;;;;;;9.80;2.95;;;;;;;;;;5045903;28;20118;-60
2022/05/27 01:17:55;;;;;;;10.15;2.30;;;;;;;;;;5045767;28;20076;-60
2022/05/27 01:20:45;;;;;;;9.43;2.83;;;;;;;;;;5028002;28;20132;-61
2022/05/27 01:23:28;;;;;;;8.50;2.53;;;;;;;;;;5045870;28;20043;-61
2022/05/27 01:26:13;;;;;;;9.20;2.60;;;;;;;;;;5044047;28;20037;-61
2022/05/27 01:28:39;;;;;;;7.10;2.58;;;;;;;;;;5044869;28;20418;-60
2022/05/27 01:31:14;;;;;;;10.18;2.90;;;;;;;;;;5045656;28;20068;-60
2022/05/27 01:33:48;;;;;;;11.70;2.60;;;;;;;;;;5045053;28;20073;-60
2022/05/27 01:36:20;;;;;;;10.10;2.25;;;;;;;;;;5045351;28;20044;-60
2022/05/27 01:38:47;;;;;;;12.95;3.22;;;;;;;;;;5046016;28;20102;-60
2022/05/27 01:41:18;;;;;;;10.02;1.92;;;;;;;;;;5045783;28;20686;-60
2022/05/27 01:43:56;;;;;;;13.90;2.38;;;;;;;;;;5045629;28;20037;-60
2022/05/27 01:46:26;;;;;;;11.93;2.50;;;;;;;;;;5044232;28;20045;-60
2022/05/27 01:49:08;;;;;;;14.05;2.47;;;;;;;;;;5044194;28;20048;-60
2022/05/27 01:51:36;;;;;;;12.02;2.45;;;;;;;;;;5044214;28;20494;-60
2022/05/27 01:54:08;;;;;;;18.10;2.80;;;;;;;;;;5044866;28;20076;-60
2022/05/27 01:56:38;;;;;;;15.52;2.63;;;;;;;;;;5044710;28;20037;-61
2022/05/27 01:59:15;;;;;;;21.58;2.78;;;;;;;;;;5044581;28;20115;-60
2022/05/27 02:01:44;;;;;;;14.70;2.60;;;;;;;;;;5044332;28;20130;-60
2022/05/27 02:04:17;;;;;;;15.93;2.45;;;;;;;;;;5045319;28;20052;-60
2022/05/27 02:06:47;;;;;;;13.02;2.60;;;;;;;;;;5044388;28;20048;-61
2022/05/27 02:09:18;;;;;;;14.40;2.78;;;;;;;;;;5045132;28;20644;-60
2022/05/27 02:11:48;;;;;;;12.45;2.30;;;;;;;;;;5044817;28;20049;-60
2022/05/27 02:14:18;;;;;;;14.45;2.22;;;;;;;;;;5044794;28;20163;-60
2022/05/27 02:16:52;;;;;;;11.40;2.22;;;;;;;;;;5045117;28;20406;-60
2022/05/27 02:19:26;;;;;;;11.80;2.63;;;;;;;;;;5044705;28;20044;-61
2022/05/27 02:21:56;;;;;;;11.48;2.15;;;;;;;;;;5044166;28;20037;-60
2022/05/27 02:24:22;;;;;;;14.07;2.35;;;;;;;;;;5044416;28;20068;-60
2022/05/27 02:26:51;;;;;;;14.57;2.35;;;;;;;;;;5044103;28;20045;-61
2022/05/27 02:29:17;;;;;;;;;;;;;;;;;;5044747;28;20069;-63
2022/05/27 02:31:46;;;;;;;6.55;1.67;;;;;;;;;;5044454;28;19956;-60
2022/05/27 02:37:00;;;;;;;;;;;;;;;;;;5043974;28;20053;-60
2022/05/27 02:39:27;;;;;;;17.25;2.33;;;;;;;;;;5044505;28;19970;-60
2022/05/27 02:42:00;;;;;;;12.07;2.50;;;;;;;;;;5044218;28;20044;-60
2022/05/27 02:44:28;;;;;;;11.60;2.50;;;;;;;;;;5026340;28;20124;-60
2022/05/27 02:46:54;;;;;;;11.30;2.40;;;;;;;;;;5044223;28;20037;-60
2022/05/27 02:49:21;;;;;;;10.40;2.30;;;;;;;;;;5044061;28;20139;-61
2022/05/27 02:52:06;;;;;;;9.52;2.55;;;;;;;;;;5044037;28;20112;-64
2022/05/27 02:54:36;;;;;;;14.70;2.63;;;;;;;;;;5043550;28;20465;-60
2022/05/27 02:57:14;;;;;;;16.77;2.85;;;;;;;;;;5043863;28;20554;-60
2022/05/27 02:59:40;;;;;;;10.32;2.58;;;;;;;;;;5043673;28;20037;-60
2022/05/27 03:02:09;;;;;;;10.10;2.40;;;;;;;;;;5044176;28;20627;-60
2022/05/27 03:04:36;;;;;;;16.75;2.75;;;;;;;;;;5044079;28;20212;-60
2022/05/27 03:07:08;;;;;;;13.18;2.63;;;;;;;;;;5043262;28;20518;-60
2022/05/27 03:09:43;;;;;;;12.13;2.30;;;;;;;;;;5042539;28;20041;-60
2022/05/27 03:12:14;;;;;;;17.27;2.72;;;;;;;;;;5044012;28;20719;-60
2022/05/27 03:15:02;;;;;;;14.82;2.80;;;;;;;;;;5043808;28;20040;-60
2022/05/27 03:17:47;;;;;;;13.45;2.35;;;;;;;;;;5044118;28;20573;-60
2022/05/27 03:20:19;;;;;;;14.85;2.72;;;;;;;;;;5044552;28;20088;-60
2022/05/27 03:22:53;;;;;;;12.23;3.22;;;;;;;;;;5044501;28;20041;-60
2022/05/27 03:25:31;;;;;;;11.05;2.20;;;;;;;;;;5043936;28;20047;-61
2022/05/27 03:28:01;;;;;;;13.20;2.85;;;;;;;;;;5041102;28;20065;-60
2022/05/27 03:30:30;;;;;;;14.85;3.15;;;;;;;;;;5044030;28;20048;-60
2022/05/27 03:33:01;;;;;;;10.40;3.13;;;;;;;;;;5044114;28;20040;-60
2022/05/27 03:35:33;;;;;;;11.70;3.03;;;;;;;;;;5042847;28;20497;-60
2022/05/27 03:38:07;;;;;;;14.13;3.58;;;;;;;;;;5044298;28;20083;-60
2022/05/27 03:40:37;;;;;;;22.33;3.80;;;;;;;;;;5043137;28;20087;-60
2022/05/27 03:43:04;;;;;;;13.25;2.90;;;;;;;;;;5043987;28;20540;-60
2022/05/27 03:45:31;;;;;;;12.95;3.25;;;;;;;;;;5042927;28;20044;-60
2022/05/27 03:47:57;;;;;;;18.30;3.38;;;;;;;;;;5044052;28;20076;-60
2022/05/27 03:50:24;;;;;;;12.65;3.58;;;;;;;;;;5042952;28;20033;-61
2022/05/27 03:52:51;;;;;;;15.50;3.30;;;;;;;;;;5043884;28;20049;-61
2022/05/27 03:55:20;;;;;;;18.60;3.05;;;;;;;;;;5046878;28;20045;-61
2022/05/27 03:57:47;;;;;;;18.90;3.10;;;;;;;;;;5047177;28;20641;-62
2022/05/27 04:00:14;;;;;;;16.10;3.55;;;;;;;;;;5047391;28;20041;-61
2022/05/27 04:02:40;;;;;;;7.55;2.35;;;;;;;;;;5046761;28;20064;-61
2022/05/27 04:05:07;;;;;;;18.33;3.63;;;;;;;;;;5046915;28;20494;-60
2022/05/27 04:07:33;;;;;;;17.15;3.42;;;;;;;;;;5046280;28;20048;-60
2022/05/27 04:09:59;;;;;;;8.23;2.60;;;;;;;;;;5047160;28;20037;-60
2022/05/27 04:12:26;;;;;;;19.65;2.80;;;;;;;;;;5028791;28;20049;-61
2022/05/27 04:14:52;;;;;;;8.10;2.78;;;;;;;;;;5045824;28;20045;-61
2022/05/27 04:17:30;;;;;;;8.98;2.40;;;;;;;;;;5046798;28;20111;-61
2022/05/27 04:19:56;;;;;;;14.73;2.63;;;;;;;;;;5046475;28;20119;-60
2022/05/27 04:22:22;;;;;;;17.85;2.70;;;;;;;;;;5045856;28;20037;-60
2022/05/27 04:24:49;;;;;;;12.00;2.60;;;;;;;;;;5045935;28;20474;-61
2022/05/27 04:27:17;;;;;;;13.50;2.78;;;;;;;;;;5043539;28;20067;-60
2022/05/27 04:29:43;;;;;;;;;;;;;;;;;;5045853;28;21183;-60
2022/05/27 04:32:10;;;;;;;17.15;3.30;;;;;;;;;;5045351;28;20457;-60
2022/05/27 04:34:36;;;;;;;18.67;3.03;;;;;;;;;;5044802;28;20044;-60
2022/05/27 04:37:03;;;;;;;11.88;2.25;;;;;;;;;;5044077;28;20036;-61
2022/05/27 04:39:29;;;;;;;11.48;2.28;;;;;;;;;;5044227;28;20033;-60
2022/05/27 04:41:55;;;;;;;21.25;2.65;;;;;;;;;;5044804;28;20037;-60
2022/05/27 04:44:21;;;;;;;11.88;2.33;;;;;;;;;;5043777;28;20111;-60
2022/05/27 04:46:47;;;;;;;14.38;2.53;;;;;;;;;;5044525;28;20160;-60
2022/05/27 04:49:50;;;;;;;12.80;1.90;;;;;;;;;;5045771;28;20056;-60
2022/05/27 04:52:00;;;;;;;12.13;1.88;;;;;;;;;;5045109;28;20048;-60
2022/05/27 04:54:27;;;;;;;21.85;2.90;;;;;;;;;;5044766;28;20033;-59
2022/05/27 04:56:53;;;;;;;19.25;2.90;;;;;;;;;;5046682;28;20041;-60
2022/05/27 04:59:20;;;;;;;9.65;1.73;;;;;;;;;;5046334;28;20079;-60
2022/05/27 05:01:46;;;;;;;20.65;2.20;;;;;;;;;;5046031;28;20052;-61
2022/05/27 05:04:12;;;;;;;25.00;7.07;;;;;;;;;;5045102;28;20049;-60
2022/05/27 05:06:38;;;;;;;22.08;10.32;;;;;;;;;;5045240;28;20125;-60
2022/05/27 05:09:05;;;;;;;16.73;2.85;;;;;;;;;;5045459;28;20152;-61
2022/05/27 05:11:31;;;;;;;23.98;2.97;;;;;;;;;;5028077;28;20578;-60
2022/05/27 05:13:57;;;;;;;13.45;2.20;;;;;;;;;;5044682;28;20135;-60
2022/05/27 05:16:23;;;;;;;15.80;1.95;;;;;;;;;;5043785;28;20052;-61
2022/05/27 05:18:50;;;;;;;12.57;2.25;;;;;;;;;;5044447;28;20482;-60
2022/05/27 05:21:17;;;;;;;17.35;2.10;;;;;;;;;;5040237;28;20045;-62
2022/05/27 05:23:43;;;;;;;14.40;2.22;;;;;;;;;;5042389;28;20037;-59
2022/05/27 05:26:11;;;;;;;12.98;2.15;;;;;;;;;;5043954;28;20041;-60
2022/05/27 05:28:37;;;;;;;11.75;1.90;;;;;;;;;;5041188;28;20294;-59
2022/05/27 05:31:04;;;;;;;13.32;2.75;;;;;;;;;;5042889;28;20037;-59
2022/05/27 05:33:30;;;;;;;18.27;6.00;;;;;;;;;;5043628;28;20510;-58
2022/05/27 05:35:56;;;;;;;19.33;2.83;;;;;;;;;;5044183;28;20049;-60
2022/05/27 05:38:22;;;;;;;12.68;2.10;;;;;;;;;;5045641;28;20045;-59
2022/05/27 05:40:49;;;;;;;13.55;1.83;;;;;;;;;;5046046;28;20044;-59
2022/05/27 05:43:15;;;;;;;15.65;1.80;;;;;;;;;;5046431;28;20041;-59
2022/05/27 05:45:42;;;;;;;17.30;3.15;;;;;;;;;;5044841;28;20037;-60
2022/05/27 05:48:08;;;;;;;20.30;2.83;;;;;;;;;;5045644;28;20494;-59
2022/05/27 05:50:34;;;;;;;14.65;2.30;;;;;;;;;;5045053;28;20100;-58
2022/05/27 05:53:00;;;;;;;18.88;2.95;;;;;;;;;;5046110;28;20044;-58
2022/05/27 05:55:27;;;;;;;12.88;2.88;;;;;;;;;;5044183;28;20130;-58
2022/05/27 05:57:53;;;;;;;15.25;4.38;;;;;;;;;;5045527;28;20075;-58
2022/05/27 06:00:21;;;;;;;7.00;1.67;;;;;;;;;;5045276;28;20394;-58
2022/05/27 06:02:47;;;;;;;11.95;2.20;;;;;;;;;;5045745;28;20128;-59
2022/05/27 06:05:13;;;;;;;15.93;1.92;;;;;;;;;;5043920;28;20045;-58
2022/05/27 06:07:40;;;;;;;14.65;2.20;;;;;;;;;;5040402;28;20498;-59
2022/05/27 06:10:06;;;;;;;11.57;1.58;;;;;;;;;;5044674;28;20570;-59
2022/05/27 06:12:34;;;;;;;12.02;2.33;;;;;;;;;;5044468;28;20122;-60
2022/05/27 06:15:00;;;;;;;13.63;1.73;;;;;;;;;;5043998;28;20041;-59
2022/05/27 06:17:27;;;;;;;18.70;2.20;;;;;;;;;;5041165;28;20486;-58
2022/05/27 06:19:53;;;;;;;11.30;1.92;;;;;;;;;;5045532;28;20446;-58
2022/05/27 06:22:20;;;;;;;12.27;2.33;;;;;;;;;;5046060;28;20481;-58
2022/05/27 06:24:46;;;;;;;14.77;2.20;;;;;;;;;;5045205;28;20611;-59
2022/05/27 06:27:12;;;;;;;10.35;2.25;;;;;;;;;;5031879;28;20041;-59
2022/05/27 06:35:09;;;;;;;21.95;5.95;;;;;;;;;;5043881;28;20064;-59
2022/05/27 06:37:36;;;;;;;13.02;2.28;;;;;;;;;;5027970;28;20045;-59
2022/05/27 06:40:03;;;;;;;14.07;2.20;;;;;;;;;;5045692;28;20051;-59
2022/05/27 06:42:29;;;;;;;13.93;1.75;;;;;;;;;;5044196;28;20090;-59
2022/05/27 06:44:55;;;;;;;14.32;2.00;;;;;;;;;;5044721;28;20084;-59
2022/05/27 06:47:21;;;;;;;10.43;1.90;;;;;;;;;;5043821;28;20128;-59
2022/05/27 06:49:48;;;;;;;12.88;2.25;;;;;;;;;;5045248;28;20057;-60
2022/05/27 06:52:15;;;;;;;18.42;2.38;;;;;;;;;;5045173;28;20041;-60
2022/05/27 06:54:42;;;;;;;19.90;2.80;;;;;;;;;;5045575;28;20045;-59
2022/05/27 06:57:08;;;;;;;8.55;1.42;;;;;;;;;;5027546;28;20091;-59
2022/05/27 06:59:36;;;;;;;17.55;2.03;;;;;;;;;;5045491;28;20433;-60
2022/05/27 07:02:02;;;;;;;15.80;1.80;;;;;;;;;;5045505;28;20490;-60
2022/05/27 07:04:28;;;;;;;10.65;1.88;;;;;;;;;;5044464;28;20482;-60
2022/05/27 07:06:54;;;;;;;16.40;2.60;;;;;;;;;;5044168;28;20048;-59
2022/05/27 07:09:22;;;;;;;16.33;2.15;;;;;;;;;;5043692;28;20406;-60
2022/05/27 07:11:51;;;;;;;10.18;1.65;;;;;;;;;;5044291;28;20538;-60
2022/05/27 07:14:17;;;;;;;11.75;1.95;;;;;;;;;;5043953;28;20052;-62
2022/05/27 07:16:45;;;;;;;15.23;2.03;;;;;;;;;;5043709;28;20056;-60
2022/05/27 07:19:11;;;;;;;10.18;1.60;;;;;;;;;;5043220;28;20124;-59
2022/05/27 07:21:41;;;;;;;11.63;2.13;;;;;;;;;;5043219;28;20911;-60
2022/05/27 07:24:09;;;;;;;7.70;1.58;;;;;;;;;;5038082;28;20114;-60
2022/05/27 07:26:36;;;;;;;12.85;1.63;;;;;;;;;;5024016;28;20069;-59
2022/05/27 07:29:02;;;;;;;12.73;1.92;;;;;;;;;;5042774;28;20107;-59
2022/05/27 07:31:29;;;;;;;12.63;1.63;;;;;;;;;;5026265;28;20068;-59
2022/05/27 07:33:56;;;;;;;12.00;1.65;;;;;;;;;;5046497;28;20547;-59
2022/05/27 07:36:22;;;;;;;11.40;1.77;;;;;;;;;;5044463;28;20410;-60
2022/05/27 07:38:51;;;;;;;14.93;2.05;;;;;;;;;;5046381;28;20079;-60
2022/05/27 07:41:18;;;;;;;15.30;2.75;;;;;;;;;;5047631;28;20167;-60
2022/05/27 07:43:44;;;;;;;16.20;2.30;;;;;;;;;;5047948;28;20405;-60
2022/05/27 07:46:11;;;;;;;17.50;2.72;;;;;;;;;;5043721;28;20052;-59
2022/05/27 07:48:37;;;;;;;14.57;2.75;;;;;;;;;;5048300;28;20045;-59
2022/05/27 07:51:04;;;;;;;13.57;1.88;;;;;;;;;;5046870;28;20239;-59
2022/05/27 07:53:30;;;;;;;13.07;1.90;;;;;;;;;;5047143;28;20045;-59
2022/05/27 07:55:56;;;;;;;15.13;1.73;;;;;;;;;;5040189;28;20041;-58
2022/05/27 07:58:22;;;;;;;16.80;2.63;;;;;;;;;;5037418;28;20063;-60
2022/05/27 08:00:49;;;;;;;14.93;1.90;;;;;;;;;;5047500;28;20490;-59
2022/05/27 08:03:18;;;;;;;11.82;1.90;;;;;;;;;;5048427;28;20044;-59
2022/05/27 08:05:44;;;;;;;11.50;1.85;;;;;;;;;;5046987;28;20055;-58
2022/05/27 08:08:11;;;;;;;10.85;1.90;;;;;;;;;;5044276;28;20052;-59
2022/05/27 08:10:38;;;;;;;15.10;1.63;;;;;;;;;;5042588;28;20056;-59
2022/05/27 08:13:04;;;;;;;9.20;1.58;;;;;;;;;;5046683;28;20409;-58
2022/05/27 08:15:31;;;;;;;14.07;2.20;;;;;;;;;;5027876;28;20463;-58
2022/05/27 08:17:57;;;;;;;11.07;1.83;;;;;;;;;;5046502;28;20115;-58
2022/05/27 08:20:25;;;;;;;10.68;1.73;;;;;;;;;;5045635;28;20048;-58
2022/05/27 08:22:53;;;;;;;9.27;1.60;;;;;;;;;;5047727;28;20041;-58
2022/05/27 08:25:20;;;;;;;14.00;2.20;;;;;;;;;;5046776;28;20059;-59
2022/05/27 08:27:46;;;;;;;12.07;1.13;;;;;;;;;;5046952;28;20159;-58
2022/05/27 08:30:14;;;;;;;9.85;1.88;;;;;;;;;;5047423;28;20044;-58
2022/05/27 08:32:40;;;;;;;10.70;1.27;;;;;;;;;;5046524;28;20037;-58
2022/05/27 08:38:03;;;;;;;8.30;1.35;;;;;;;;;;5046921;28;20485;-58
2022/05/27 08:40:41;;;;;;;13.77;1.50;;;;;;;;;;5046154;28;20045;-58
2022/05/27 08:43:10;;;;;;;13.55;1.85;;;;;;;;;;5047457;28;20651;-58
2022/05/27 08:45:39;;;;;;;12.85;1.48;;;;;;;;;;5046424;28;20041;-58
2022/05/27 08:48:06;;;;;;;9.25;2.00;;;;;;;;;;5046666;28;20090;-58
2022/05/27 08:50:36;;;;;;;10.02;1.52;;;;;;;;;;5045713;28;20128;-57
2022/05/27 08:53:20;;;;;;;12.20;2.30;;;;;;;;;;5046336;28;20033;-58
2022/05/27 09:01:21;;;;;;;19.52;1.83;;;;;;;;;;5046040;28;20037;-58
2022/05/27 09:03:49;;;;;;;16.35;3.00;;;;;;;;;;5046811;28;20409;-61
2022/05/27 09:06:18;;;;;;;23.42;2.40;;;;;;;;;;5045938;28;20114;-58
2022/05/27 09:08:44;;;;;;;9.48;1.95;;;;;;;;;;5046383;28;20414;-59
2022/05/27 09:11:33;;;;;;;28.70;2.72;;;;;;;;;;5046493;28;20052;-59
2022/05/27 09:14:13;;;;;;;15.23;2.00;;;;;;;;;;5024379;28;20041;-58
2022/05/27 09:16:54;;;;;;;12.93;1.50;;;;;;;;;;5045998;28;20072;-58
2022/05/27 09:19:26;;;;;;;11.73;1.40;;;;;;;;;;5045148;28;20048;-58
2022/05/27 09:21:53;;;;;;;7.15;1.10;;;;;;;;;;5046255;28;20076;-58
2022/05/27 09:24:30;;;;;;;11.30;1.30;;;;;;;;;;5041778;28;20051;-58
2022/05/27 09:27:08;;;;;;;7.03;1.48;;;;;;;;;;5045595;28;20048;-58
2022/05/27 09:29:46;;;;;;;9.43;1.40;;;;;;;;;;5043324;28;20031;-58
2022/05/27 09:32:17;;;;;;;51.90;4.47;;;;;;;;;;5046871;28;20478;-58
2022/05/27 09:34:44;;;;;;;15.63;1.45;;;;;;;;;;5045579;28;20044;-58
2022/05/27 09:37:14;;;;;;;9.73;1.30;;;;;;;;;;5046000;28;20045;-58
2022/05/27 09:39:40;;;;;;;10.88;1.15;;;;;;;;;;5045514;28;20033;-59
2022/05/27 09:42:07;;;;;;;14.32;1.55;;;;;;;;;;5045809;28;20552;-59
2022/05/27 09:44:35;;;;;;;17.55;2.55;;;;;;;;;;5045335;28;20056;-58
2022/05/27 09:47:02;;;;;;;15.93;1.83;;;;;;;;;;5046000;28;20037;-58
2022/05/27 09:49:28;;;;;;;11.52;1.75;;;;;;;;;;5044329;28;20400;-58
2022/05/27 09:51:54;;;;;;;8.55;1.27;;;;;;;;;;5044382;28;20033;-58
2022/05/27 09:54:27;;;;;;;9.02;1.35;;;;;;;;;;5044663;28;20371;-58
2022/05/27 09:56:59;;;;;;;16.08;2.55;;;;;;;;;;5045395;28;20507;-58
2022/05/27 09:59:27;;;;;;;12.00;2.00;;;;;;;;;;5045060;28;20044;-58
2022/05/27 10:01:57;;;;;;;10.93;1.73;;;;;;;;;;5041268;28;20041;-58
2022/05/27 10:04:23;;;;;;;13.18;1.88;;;;;;;;;;5042753;28;20048;-58
2022/05/27 10:06:51;;;;;;;13.57;1.70;;;;;;;;;;5045132;28;20045;-58
2022/05/27 10:09:26;;;;;;;14.75;1.95;;;;;;;;;;5044828;28;20049;-61
2022/05/27 10:11:54;;;;;;;16.30;1.90;;;;;;;;;;5043550;28;20044;-58
2022/05/27 10:14:22;;;;;;;12.97;1.57;;;;;;;;;;5044153;28;20041;-58
2022/05/27 10:17:09;;;;;;;14.85;1.90;;;;;;;;;;5041840;28;20073;-58
2022/05/27 10:19:36;;;;;;;7.03;1.67;;;;;;;;;;5043758;28;20479;-58
2022/05/27 10:22:04;;;;;;;11.02;1.27;;;;;;;;;;5045120;28;20041;-58
2022/05/27 10:24:32;;;;;;;16.58;1.98;;;;;;;;;;5041232;28;20033;-58
2022/05/27 10:27:00;;;;;;;9.48;1.38;;;;;;;;;;5044065;28;20494;-58
2022/05/27 10:29:27;;;;;;;;;;;;;;;;;;5027511;28;20040;-58
2022/05/27 10:31:54;;;;;;;6.60;1.40;;;;;;;;;;5044927;28;20459;-59
2022/05/27 10:34:40;;;;;;;10.88;1.73;;;;;;;;;;5043921;28;20482;-58
2022/05/27 10:37:14;;;;;;;18.08;2.45;;;;;;;;;;5044504;28;20490;-58
2022/05/27 10:39:53;;;;;;;13.77;1.50;;;;;;;;;;5044257;28;20529;-59
2022/05/27 10:42:19;;;;;;;10.63;1.38;;;;;;;;;;5044455;28;20041;-58
2022/05/27 10:44:49;;;;;;;11.20;1.65;;;;;;;;;;5026971;28;20044;-58
2022/05/27 10:47:25;;;;;;;19.05;4.20;;;;;;;;;;5044821;28;20131;-58
2022/05/27 10:49:56;;;;;;;15.68;5.60;;;;;;;;;;5043608;28;20092;-58
2022/05/27 10:52:23;;;;;;;15.48;1.92;;;;;;;;;;5043692;28;20127;-57
2022/05/27 10:54:49;;;;;;;7.88;1.48;;;;;;;;;;5042468;28;20037;-58
2022/05/27 11:03:05;;;;;;;14.65;1.77;;;;;;;;;;5046169;28;20533;-58
2022/05/27 11:05:55;;;;;;;13.95;1.63;;;;;;;;;;5048771;28;20048;-59
2022/05/27 11:08:24;;;;;;;10.48;1.33;;;;;;;;;;5060418;28;20528;-58
2022/05/27 11:11:17;;;;;;;12.40;1.60;;;;;;;;;;5069405;28;20119;-59
2022/05/27 11:16:37;;;;;;;12.73;1.60;;;;;;;;;;5068746;28;20283;-58
2022/05/27 11:19:07;;;;;;;14.57;2.05;;;;;;;;;;5068197;28;20062;-58
2022/05/27 11:21:42;;;;;;;18.23;1.65;;;;;;;;;;5068636;28;20066;-58
2022/05/27 11:24:24;;;;;;;11.88;2.03;;;;;;;;;;5068866;28;20055;-58
2022/05/27 11:27:08;;;;;;;10.02;1.70;;;;;;;;;;5063152;28;20498;-58
2022/05/27 11:29:40;;;;;;;18.73;2.08;;;;;;;;;;5038860;28;20037;-58
2022/05/27 11:32:20;;;;;;;14.25;2.22;;;;;;;;;;5036247;28;20037;-58
2022/05/27 11:34:53;;;;;;;10.98;1.45;;;;;;;;;;5026422;28;20076;-58
2022/05/27 11:37:27;;;;;;;13.88;2.00;;;;;;;;;;5045651;28;20040;-58
2022/05/27 11:39:59;;;;;;;22.27;1.80;;;;;;;;;;5046139;28;20075;-59
2022/05/27 11:42:35;;;;;;;8.02;1.40;;;;;;;;;;5046433;28;20506;-58
2022/05/27 11:45:06;;;;;;;8.60;1.35;;;;;;;;;;5046159;28;20076;-58
2022/05/27 11:47:43;;;;;;;13.63;1.70;;;;;;;;;;5045185;28;20041;-58
2022/05/27 11:50:21;;;;;;;15.48;1.63;;;;;;;;;;5027406;28;20045;-58
2022/05/27 11:53:05;;;;;;;10.85;1.38;;;;;;;;;;5028977;28;20041;-60
2022/05/27 11:55:41;;;;;;;11.65;1.40;;;;;;;;;;5028377;28;20056;-59
2022/05/27 11:58:18;;;;;;;16.92;1.90;;;;;;;;;;5028316;28;20045;-59
2022/05/27 12:00:46;;;;;;;53.28;2.97;;;;;;;;;;5028991;28;20041;-58
2022/05/27 12:03:18;;;;;;;18.08;1.80;;;;;;;;;;5054350;28;20044;-59
2022/05/27 12:05:45;;;;;;;18.08;1.70;;;;;;;;;;5044214;28;20040;-59
2022/05/27 12:08:17;;;;;;;10.57;1.73;;;;;;;;;;5040525;28;20117;-59
2022/05/27 12:10:47;;;;;;;10.98;1.75;;;;;;;;;;5041813;28;20051;-58
2022/05/27 12:13:21;;;;;;;14.77;1.58;;;;;;;;;;5035182;28;20641;-58
2022/05/27 12:15:52;;;;;;;12.52;1.80;;;;;;;;;;5025114;28;20081;-58
2022/05/27 12:18:22;;;;;;;12.52;2.13;;;;;;;;;;5025532;28;20640;-59
2022/05/27 12:20:48;;;;;;;11.35;1.95;;;;;;;;;;5025133;28;20046;-60
2022/05/27 12:23:16;;;;;;;19.77;2.47;;;;;;;;;;5025369;28;20540;-59
2022/05/27 12:25:44;;;;;;;30.63;2.97;;;;;;;;;;5031907;28;20048;-59
2022/05/27 12:28:11;;;;;;;13.10;1.77;;;;;;;;;;5037633;28;20282;-59
2022/05/27 12:30:41;;;;;;;18.23;1.77;;;;;;;;;;5022892;28;20679;-58
2022/05/27 12:33:10;;;;;;;10.88;2.13;;;;;;;;;;5023009;28;20060;-58
2022/05/27 12:35:36;;;;;;;8.65;1.33;;;;;;;;;;5040654;28;20162;-58
2022/05/27 12:38:11;;;;;;;8.88;1.30;;;;;;;;;;5040894;28;20159;-59
2022/05/27 12:40:49;;;;;;;14.38;2.25;;;;;;;;;;5041268;28;20698;-58
2022/05/27 12:43:21;;;;;;;18.73;2.10;;;;;;;;;;5041962;28;20045;-59
2022/05/27 12:45:49;;;;;;;16.10;2.03;;;;;;;;;;5042467;28;20045;-58
2022/05/27 12:48:29;;;;;;;7.70;1.45;;;;;;;;;;5042758;28;20056;-59
2022/05/27 12:50:57;;;;;;;24.95;2.10;;;;;;;;;;5041605;28;20086;-59
2022/05/27 12:53:36;;;;;;;14.15;1.90;;;;;;;;;;5041686;28;20558;-60
2022/05/27 13:02:18;;;;;;;15.73;2.00;;;;;;;;;;5038980;28;20053;-58
2022/05/27 13:04:48;;;;;;;15.38;2.13;;;;;;;;;;5041752;28;20091;-59
2022/05/27 13:07:15;;;;;;;17.38;1.58;;;;;;;;;;5041603;28;20057;-61
2022/05/27 13:09:46;;;;;;;16.70;1.95;;;;;;;;;;5024133;28;20053;-59
2022/05/27 13:12:34;;;;;;;7.65;1.60;;;;;;;;;;5042143;28;20061;-58
2022/05/27 13:15:09;;;;;;;12.50;1.88;;;;;;;;;;5042203;28;20437;-58
2022/05/27 13:17:37;;;;;;;16.85;1.88;;;;;;;;;;5041190;28;20067;-59
2022/05/27 13:20:07;;;;;;;17.07;2.43;;;;;;;;;;5041105;28;20033;-59
2022/05/27 13:22:36;;;;;;;13.70;1.90;;;;;;;;;;5040081;28;20047;-58
2022/05/27 13:25:17;;;;;;;20.10;2.22;;;;;;;;;;5038743;28;20056;-59
2022/05/27 13:27:43;;;;;;;13.98;1.70;;;;;;;;;;5039038;28;20045;-59
2022/05/27 13:30:11;;;;;;;11.02;1.70;;;;;;;;;;5037972;28;20040;-59
2022/05/27 13:32:51;;;;;;;19.52;1.73;;;;;;;;;;5037679;28;20048;-59
2022/05/27 13:35:18;;;;;;;12.05;1.92;;;;;;;;;;5038078;28;20104;-59
2022/05/27 13:37:57;;;;;;;16.40;1.50;;;;;;;;;;5036360;28;20555;-59
2022/05/27 13:40:27;;;;;;;20.15;1.48;;;;;;;;;;5018203;28;20041;-59
2022/05/27 13:42:55;;;;;;;17.33;1.70;;;;;;;;;;5037810;28;20577;-59
2022/05/27 13:45:22;;;;;;;15.63;2.00;;;;;;;;;;5038259;28;20041;-59
2022/05/27 13:47:55;;;;;;;9.90;1.35;;;;;;;;;;5041059;28;20495;-59
2022/05/27 13:50:33;;;;;;;9.93;1.40;;;;;;;;;;5036773;28;20048;-58
2022/05/27 13:52:59;;;;;;;;;;;;;;;;;;5041517;28;20041;-58
2022/05/27 13:55:27;;;;;;;12.13;1.63;;;;;;;;;;5041498;28;19936;-58
2022/05/27 13:57:53;;;;;;;13.40;1.70;;;;;;;;;;5040042;28;20047;-58
2022/05/27 14:00:32;;;;;;;18.55;2.00;;;;;;;;;;5042436;28;20102;-58
2022/05/27 14:02:59;;;;;;;14.32;1.67;;;;;;;;;;5042757;28;20461;-58
2022/05/27 14:05:26;;;;;;;10.48;1.73;;;;;;;;;;5042324;28;20044;-59
2022/05/27 14:07:55;;;;;;;13.10;1.50;;;;;;;;;;5042574;28;20059;-59
2022/05/27 14:10:24;;;;;;;10.77;1.50;;;;;;;;;;5042966;28;20124;-59
2022/05/27 14:12:52;;;;;;;12.00;1.65;;;;;;;;;;5024708;28;20029;-59
2022/05/27 14:15:20;;;;;;;14.30;1.38;;;;;;;;;;5042839;28;20084;-59
2022/05/27 14:17:47;;;;;;;11.88;1.45;;;;;;;;;;5042499;28;20107;-60
2022/05/27 14:20:23;;;;;;;11.97;1.73;;;;;;;;;;5042463;28;20084;-59
2022/05/27 14:22:50;;;;;;;10.23;1.42;;;;;;;;;;5042960;28;20296;-59
2022/05/27 14:25:20;;;;;;;8.20;1.45;;;;;;;;;;5041154;28;20083;-62
2022/05/27 14:27:55;;;;;;;13.73;1.40;;;;;;;;;;5038910;28;20044;-59
2022/05/27 14:30:24;;;;;;;13.82;1.75;;;;;;;;;;5023073;28;20053;-62
2022/05/27 14:32:51;;;;;;;13.00;1.65;;;;;;;;;;5037462;28;20052;-59
2022/05/27 14:35:20;;;;;;;13.45;1.30;;;;;;;;;;5041886;28;20049;-60
2022/05/27 14:37:50;;;;;;;9.68;1.15;;;;;;;;;;5037580;28;20044;-60
2022/05/27 14:40:20;;;;;;;15.18;1.67;;;;;;;;;;5041662;28;20045;-60
2022/05/27 14:42:47;;;;;;;11.57;1.50;;;;;;;;;;5040229;28;20037;-59
2022/05/27 14:45:33;;;;;;;11.93;1.25;;;;;;;;;;5042560;28;20041;-60
2022/05/27 14:47:59;;;;;;;9.77;1.27;;;;;;;;;;5035883;28;20423;-59
2022/05/27 14:50:32;;;;;;;8.30;1.77;;;;;;;;;;5031891;28;20079;-59
2022/05/27 14:53:01;;;;;;;20.73;2.42;;;;;;;;;;5043630;28;20056;-59
2022/05/27 14:55:33;;;;;;;10.63;1.80;;;;;;;;;;5039935;28;20048;-60
2022/05/27 14:58:01;;;;;;;11.38;1.40;;;;;;;;;;5042893;28;20045;-60
2022/05/27 15:00:29;;;;;;;7.43;1.00;;;;;;;;;;5041350;28;20447;-60
2022/05/27 15:02:57;;;;;;;10.30;1.42;;;;;;;;;;5023202;28;20045;-60
2022/05/27 15:05:23;;;;;;;12.82;1.35;;;;;;;;;;5041592;28;20051;-60
2022/05/27 15:07:52;;;;;;;8.60;1.77;;;;;;;;;;5042072;28;20056;-60
2022/05/27 15:10:21;;;;;;;12.63;2.00;;;;;;;;;;5041397;28;20060;-60
2022/05/27 15:12:48;;;;;;;13.15;1.70;;;;;;;;;;5042066;28;20088;-60
2022/05/27 15:15:27;;;;;;;10.68;1.50;;;;;;;;;;5025692;28;20063;-60
2022/05/27 15:18:09;;;;;;;10.25;1.40;;;;;;;;;;5037466;28;20043;-60
2022/05/27 15:20:36;;;;;;;9.52;1.40;;;;;;;;;;5038951;28;20426;-60